Main page
METAR-TAF:

METAR-TAF

Airports :

Dundee, Scotland

Dundee Airport

latitude: 56-27N, longitude: 003-01W, elevation: 4 m

Current weather observation

The report was made 44 minutes ago, at 15:50 UTC
Wind 17 kt from the West/Southwest
Temperature 13°C
Humidity 72%
Pressure 1001 hPa
Visibility 10 km or more
Few clouds at a height of 3000 ft

METAR: EGPN 221550Z 25017KT 9999 FEW030 13/08 Q1001

Time: 17:34 (16:34 UTC)

Forecast

The report was made 2 hours and 33 minutes ago, at 14:01 UTC
Forecast valid from 22 at 15 UTC to 22 at 20 UTC
Wind 12 kt from the Southwest
Visibility 10 km or more
Few clouds at a height of 500 ft
Scattered clouds at a height of 3000 ft
Probability 40% :
Temporary
from 22 at 15 UTC to 22 at 20 UTC
Visibility: 7000 m
rain
Probability 30% :
Temporary
from 22 at 15 UTC to 22 at 17 UTC
Wind 16 kt from the West/Southwest with gusts up to 26 kt

TAF: EGPN 221401Z 2215/2220 23012KT 9999 FEW005 SCT030 PROB40 TEMPO 2215/2220 7000 RA PROB30 TEMPO 2215/2217 25016G26KT

Weather observations and forecasts of more than 4000 airports (METAR and TAF reports).

The available stations are represented by yellow and red dots on the map.

Hover mouse over dot to see the name of the station.

Then click to see weather observations and forecasts.

To change the map : click on the green buttons with a black cross to zoom in, on the green button with a dash to zoom out, or on the green arrows for adjacent maps.


METAR-TAF: